Time;durP1;ratioP1;P1;durP2;ratioP2;P2;SDS_P1;SDS_P2;PMS_P1;PMS_P2;Temp;Humidity;BMP_temperature;BMP_pressure;BME280_temperature;BME280_humidity;BME280_pressure;Samples;Min_cycle;Max_cycle;Signal;HPM_P1;HPM_P2
2023/10/20 00:01:50;;;;;;;2.42;1.67;;;23.20;62.30;;;;;;4920131;28;86585;-90
2023/10/20 00:04:16;;;;;;;2.75;1.88;;;23.20;62.30;;;;;;4918118;28;89204;-86
2023/10/20 00:06:42;;;;;;;3.58;2.03;;;23.20;62.50;;;;;;4919906;28;87441;-89
2023/10/20 00:09:18;;;;;;;2.28;1.58;;;23.20;62.30;;;;;;4917592;28;89050;-86
2023/10/20 00:11:45;;;;;;;2.90;1.88;;;23.20;62.40;;;;;;4939140;28;87941;-87
2023/10/20 00:14:10;;;;;;;3.35;1.67;;;23.20;62.50;;;;;;4934201;28;87823;-92
2023/10/20 00:16:37;;;;;;;3.35;1.67;;;23.20;62.40;;;;;;4936026;28;89976;-86
2023/10/20 00:19:03;;;;;;;2.70;1.75;;;23.20;62.30;;;;;;4937428;28;87760;-88
2023/10/20 00:21:32;;;;;;;3.40;1.80;;;23.20;62.60;;;;;;4937735;28;87601;-90
2023/10/20 00:23:57;;;;;;;2.57;1.60;;;23.10;62.60;;;;;;4939454;28;87682;-88
2023/10/20 00:26:23;;;;;;;2.45;1.65;;;23.10;62.40;;;;;;4922171;28;87545;-88
2023/10/20 00:28:58;;;;;;;2.10;1.50;;;23.10;62.50;;;;;;4917949;28;87505;-87
2023/10/20 00:31:24;;;;;;;2.50;1.50;;;23.20;62.40;;;;;;4914927;28;87382;-85
2023/10/20 00:33:50;;;;;;;1.75;1.33;;;23.10;62.30;;;;;;4897280;28;91357;-90
2023/10/20 00:36:17;;;;;;;4.00;1.65;;;23.10;62.30;;;;;;4920041;28;88379;-87
2023/10/20 00:38:43;;;;;;;3.67;1.80;;;23.10;62.50;;;;;;4919449;28;87822;-87
2023/10/20 00:41:08;;;;;;;2.22;1.40;;;23.10;62.30;;;;;;4920306;28;89151;-87
2023/10/20 00:43:38;;;;;;;1.88;1.20;;;23.10;62.30;;;;;;4937790;28;88576;-86
2023/10/20 00:46:10;;;;;;;2.58;1.50;;;23.10;62.30;;;;;;4927343;28;87890;-86
2023/10/20 00:48:36;;;;;;;2.70;1.35;;;23.10;62.40;;;;;;4938171;28;87747;-86
2023/10/20 00:51:05;;;;;;;2.25;1.63;;;23.10;62.20;;;;;;4918883;28;90387;-86
2023/10/20 00:53:33;;;;;;;1.95;1.50;;;23.00;62.30;;;;;;4917828;28;89341;-87
2023/10/20 00:56:00;;;;;;;1.60;1.40;;;23.10;62.30;;;;;;4933895;28;89230;-87
2023/10/20 00:58:26;;;;;;;2.85;1.70;;;23.00;62.20;;;;;;4928589;28;88654;-85
2023/10/20 01:00:52;;;;;;;1.85;1.40;;;23.00;62.40;;;;;;4916200;28;89525;-86
2023/10/20 01:03:18;;;;;;;2.60;1.23;;;23.00;62.50;;;;;;4916854;28;88116;-86
2023/10/20 01:05:44;;;;;;;2.63;1.55;;;23.00;62.40;;;;;;4915878;28;90107;-86
2023/10/20 01:08:13;;;;;;;2.72;1.90;;;23.00;62.20;;;;;;4936791;28;87644;-88
2023/10/20 01:10:38;;;;;;;;;;;23.00;62.20;;;;;;4928013;28;87013;-88
2023/10/20 01:13:05;;;;;;;1.48;1.10;;;23.00;62.20;;;;;;4903432;28;90974;-87
2023/10/20 01:15:31;;;;;;;3.47;1.40;;;23.00;62.20;;;;;;4919338;28;86917;-88
2023/10/20 01:17:58;;;;;;;1.92;1.35;;;23.00;62.20;;;;;;4891441;28;86996;-85
2023/10/20 01:20:23;;;;;;;2.70;1.38;;;23.00;62.10;;;;;;4898188;28;86997;-90
2023/10/20 01:22:49;;;;;;;2.42;1.38;;;23.00;62.10;;;;;;4909077;28;88917;-86
2023/10/20 01:25:15;;;;;;;2.50;1.63;;;23.00;62.10;;;;;;4922296;28;88570;-87
2023/10/20 01:27:41;;;;;;;1.55;1.40;;;23.00;62.20;;;;;;4917893;28;87376;-87
2023/10/20 01:30:10;;;;;;;2.65;1.23;;;23.00;62.10;;;;;;4936443;28;87778;-86
2023/10/20 01:32:36;;;;;;;2.30;1.60;;;22.90;62.20;;;;;;4936236;28;88586;-87
2023/10/20 01:35:03;;;;;;;2.10;1.70;;;22.90;62.30;;;;;;4934925;28;88106;-88
2023/10/20 01:37:28;;;;;;;2.13;1.35;;;22.90;62.10;;;;;;4918534;28;87556;-86
2023/10/20 01:39:55;;;;;;;1.95;1.35;;;22.90;62.30;;;;;;4938247;28;86939;-86
2023/10/20 01:42:21;;;;;;;2.05;1.30;;;22.90;62.00;;;;;;4936202;28;88101;-86
2023/10/20 01:44:47;;;;;;;2.67;1.52;;;22.90;62.00;;;;;;4936636;28;87497;-90
2023/10/20 01:47:13;;;;;;;2.88;1.40;;;22.90;62.20;;;;;;4934987;28;88722;-91
2023/10/20 01:49:41;;;;;;;1.63;1.30;;;22.90;62.20;;;;;;4920369;28;88442;-86
2023/10/20 01:52:07;;;;;;;1.70;1.42;;;22.90;62.00;;;;;;4928975;28;89424;-87
2023/10/20 01:54:33;;;;;;;2.47;1.65;;;22.90;62.20;;;;;;4915783;28;88239;-87
2023/10/20 01:56:58;;;;;;;2.95;1.92;;;22.90;62.10;;;;;;4916265;28;87903;-86
2023/10/20 01:59:24;;;;;;;3.03;1.73;;;22.90;62.10;;;;;;4917325;28;87312;-88
2023/10/20 02:01:50;;;;;;;1.77;1.40;;;22.90;62.10;;;;;;4907587;28;88211;-87
2023/10/20 02:04:15;;;;;;;2.50;1.60;;;22.80;62.10;;;;;;4900202;28;90184;-87
2023/10/20 02:06:42;;;;;;;1.40;1.10;;;22.80;62.20;;;;;;4916083;28;87547;-88
2023/10/20 02:09:09;;;;;;;3.45;1.50;;;22.90;62.20;;;;;;4936399;28;87467;-85
2023/10/20 02:11:36;;;;;;;2.00;1.42;;;22.90;62.10;;;;;;4931712;28;91371;-88
2023/10/20 02:14:03;;;;;;;2.05;1.45;;;22.90;62.00;;;;;;4917444;28;91481;-90
2023/10/20 02:16:28;;;;;;;1.80;1.40;;;22.80;62.10;;;;;;4936860;28;87274;-88
2023/10/20 02:18:54;;;;;;;1.92;1.10;;;22.80;61.90;;;;;;4934054;28;87612;-88
2023/10/20 02:21:20;;;;;;;2.47;1.38;;;22.80;62.30;;;;;;4935285;28;88572;-86
2023/10/20 02:23:46;;;;;;;2.33;1.48;;;22.80;62.30;;;;;;4934292;28;90716;-89
2023/10/20 02:26:12;;;;;;;3.08;1.35;;;22.80;62.10;;;;;;4905497;28;87096;-89
2023/10/20 02:28:38;;;;;;;3.65;1.38;;;22.80;62.20;;;;;;4909101;28;87348;-90
2023/10/20 02:31:17;;;;;;;2.65;1.73;;;22.80;62.10;;;;;;4892400;28;90955;-88
2023/10/20 02:33:45;;;;;;;;;;;22.80;62.00;;;;;;4918685;28;88527;-87
2023/10/20 02:36:21;;;;;;;3.33;1.50;;;22.80;62.00;;;;;;4936348;28;88126;-87
2023/10/20 02:38:48;;;;;;;2.30;1.70;;;22.80;62.00;;;;;;4934208;28;88826;-91
2023/10/20 02:41:16;;;;;;;3.95;1.25;;;22.80;61.90;;;;;;4920446;28;87748;-86
2023/10/20 02:43:42;;;;;;;2.73;1.23;;;22.80;61.80;;;;;;4913672;28;89804;-87
2023/10/20 02:46:09;;;;;;;1.98;1.50;;;22.80;61.60;;;;;;4918486;28;88011;-87
2023/10/20 02:48:35;;;;;;;1.42;1.25;;;22.80;61.80;;;;;;4924556;28;87621;-88
2023/10/20 02:51:13;;;;;;;2.08;1.58;;;22.80;61.70;;;;;;4923829;28;87831;-91
2023/10/20 02:53:41;;;;;;;1.85;1.55;;;22.80;61.70;;;;;;4923064;28;87476;-87
2023/10/20 02:56:25;;;;;;;1.95;1.25;;;22.80;61.90;;;;;;4934391;28;87824;-89
2023/10/20 02:58:51;;;;;;;2.10;1.40;;;22.80;61.90;;;;;;4925412;28;87663;-86
2023/10/20 03:01:18;;;;;;;2.85;1.60;;;22.80;62.10;;;;;;4935791;28;88503;-86
2023/10/20 03:03:45;;;;;;;2.15;1.30;;;22.80;62.10;;;;;;4937019;28;88653;-88
2023/10/20 03:06:11;;;;;;;1.90;1.40;;;22.80;62.00;;;;;;4939155;28;87314;-87
2023/10/20 03:08:38;;;;;;;3.45;2.03;;;22.70;62.10;;;;;;4934626;28;87868;-86
2023/10/20 03:11:05;;;;;;;2.47;1.70;;;22.70;61.90;;;;;;4915919;28;90141;-93
2023/10/20 03:13:31;;;;;;;2.60;1.50;;;22.70;61.70;;;;;;4917820;28;89273;-90
2023/10/20 03:15:57;;;;;;;2.25;1.20;;;22.70;61.80;;;;;;4932785;28;92664;-87
2023/10/20 03:18:23;;;;;;;2.45;1.73;;;22.70;61.80;;;;;;4924799;28;86930;-91
2023/10/20 03:20:50;;;;;;;1.83;1.70;;;22.70;61.90;;;;;;4935569;28;87737;-87
2023/10/20 03:23:17;;;;;;;3.83;1.67;;;22.70;62.00;;;;;;4934669;28;87521;-88
2023/10/20 03:25:43;;;;;;;1.83;1.48;;;22.70;61.90;;;;;;4928066;28;88871;-87
2023/10/20 03:28:09;;;;;;;2.50;1.30;;;22.70;61.80;;;;;;4936614;28;87651;-86
2023/10/20 03:30:42;;;;;;;1.52;1.23;;;22.60;61.90;;;;;;4921555;28;90385;-86
2023/10/20 03:33:17;;;;;;;2.42;1.75;;;22.70;62.00;;;;;;4938589;28;87515;-86
2023/10/20 03:35:43;;;;;;;2.95;1.30;;;22.70;61.90;;;;;;4940288;28;88138;-86
2023/10/20 03:38:09;;;;;;;2.15;1.42;;;22.70;62.00;;;;;;4920489;28;89526;-87
2023/10/20 03:40:40;;;;;;;3.20;1.80;;;22.70;61.90;;;;;;4940416;28;87979;-86
2023/10/20 03:43:08;;;;;;;1.63;1.27;;;22.60;61.80;;;;;;4920769;28;90057;-86
2023/10/20 03:45:41;;;;;;;1.65;1.50;;;22.70;61.90;;;;;;4939473;28;88238;-88
2023/10/20 03:48:10;;;;;;;1.98;1.30;;;22.70;61.90;;;;;;4922364;28;88853;-87
2023/10/20 03:50:38;;;;;;;1.92;1.42;;;22.70;61.70;;;;;;4936899;28;89501;-87
2023/10/20 03:53:05;;;;;;;1.48;1.20;;;22.60;61.80;;;;;;4923985;28;90110;-87
2023/10/20 03:55:30;;;;;;;2.03;1.30;;;22.60;61.90;;;;;;4902761;28;87742;-86
2023/10/20 03:57:56;;;;;;;1.65;1.23;;;22.60;61.70;;;;;;4901268;28;89670;-87
2023/10/20 04:00:28;;;;;;;1.83;1.10;;;22.60;61.70;;;;;;4899792;28;90708;-87
2023/10/20 04:02:56;;;;;;;1.80;1.10;;;22.60;61.80;;;;;;4892830;28;95072;-86
2023/10/20 04:05:23;;;;;;;1.77;1.20;;;22.60;61.70;;;;;;4901726;28;87326;-88
2023/10/20 04:07:50;;;;;;;1.33;1.23;;;22.60;61.70;;;;;;4907648;28;88445;-87
2023/10/20 04:10:18;;;;;;;2.03;1.45;;;22.60;61.90;;;;;;4927128;28;88363;-87
2023/10/20 04:12:44;;;;;;;2.33;1.40;;;22.60;61.70;;;;;;4935718;28;90058;-87
2023/10/20 04:15:19;;;;;;;2.67;1.70;;;22.60;61.60;;;;;;4938282;28;88357;-87
2023/10/20 04:17:51;;;;;;;1.67;1.15;;;22.60;61.60;;;;;;4903564;28;89121;-86
2023/10/20 04:20:21;;;;;;;2.67;1.50;;;22.60;61.60;;;;;;4910386;28;90844;-88
2023/10/20 04:22:51;;;;;;;3.08;1.40;;;22.60;61.80;;;;;;4917111;28;87957;-86
2023/10/20 04:25:33;;;;;;;2.20;1.38;;;22.60;61.70;;;;;;4923099;28;87542;-86
2023/10/20 04:28:12;;;;;;;1.58;1.25;;;22.60;61.90;;;;;;4933916;28;88041;-88
2023/10/20 05:07:53;;;;;;;1.20;1.10;;;22.60;61.70;;;;;;4937079;28;88229;-86
2023/10/20 05:10:20;;;;;;;2.13;1.48;;;22.60;61.70;;;;;;4936916;28;87977;-86
2023/10/20 05:12:54;;;;;;;1.20;1.10;;;22.60;61.60;;;;;;4936805;28;87745;-88
2023/10/20 05:15:21;;;;;;;2.03;1.17;;;22.60;61.60;;;;;;4918810;28;89052;-89
2023/10/20 05:17:50;;;;;;;1.65;1.35;;;22.60;61.70;;;;;;4937292;28;87671;-89
2023/10/20 05:20:20;;;;;;;1.83;1.20;;;22.60;61.50;;;;;;4937345;28;87604;-87
2023/10/20 05:22:46;;;;;;;1.88;1.20;;;22.50;61.60;;;;;;4938262;28;88036;-86
2023/10/20 05:25:13;;;;;;;1.77;1.10;;;22.60;61.70;;;;;;4921364;28;89244;-88
2023/10/20 05:27:39;;;;;;;2.28;1.65;;;22.50;61.60;;;;;;4937638;28;87794;-87
2023/10/20 05:30:05;;;;;;;1.20;1.08;;;22.50;61.60;;;;;;4919899;28;89138;-87
2023/10/20 05:32:31;;;;;;;1.67;1.20;;;22.60;61.70;;;;;;4918264;28;92527;-87
2023/10/20 05:34:59;;;;;;;1.10;1.00;;;22.50;61.70;;;;;;4935009;28;88749;-87
2023/10/20 05:37:25;;;;;;;1.30;0.90;;;22.50;61.60;;;;;;4918443;28;87293;-86
2023/10/20 05:39:52;;;;;;;2.00;1.58;;;22.50;61.50;;;;;;4917925;28;88534;-88
2023/10/20 05:42:17;;;;;;;1.25;1.15;;;22.50;61.70;;;;;;4934854;28;88343;-86
2023/10/20 05:47:45;;;;;;;1.23;1.10;;;22.50;62.00;;;;;;4875503;28;87253;-87
2023/10/20 05:50:11;;;;;;;2.55;1.30;;;22.50;61.60;;;;;;4906629;28;89888;-90
2023/10/20 05:52:37;;;;;;;1.88;1.38;;;22.50;61.50;;;;;;4925174;28;87621;-85
2023/10/20 05:55:03;;;;;;;2.40;1.30;;;22.50;61.50;;;;;;4909392;28;87795;-88
2023/10/20 05:57:32;;;;;;;3.17;1.40;;;22.50;61.50;;;;;;4913664;28;89148;-88
2023/10/20 06:00:01;;;;;;;1.40;1.10;;;22.50;61.40;;;;;;4940266;28;87600;-88
2023/10/20 06:02:27;;;;;;;1.77;1.30;;;22.50;61.60;;;;;;4901160;28;90363;-85
2023/10/20 06:04:53;;;;;;;1.42;1.33;;;22.50;61.40;;;;;;4918261;28;90079;-90
2023/10/20 06:07:19;;;;;;;1.17;1.08;;;22.50;61.30;;;;;;4936300;28;87348;-87
2023/10/20 06:09:44;;;;;;;1.95;1.10;;;22.50;61.50;;;;;;4935155;28;87646;-89
2023/10/20 06:12:11;;;;;;;1.98;1.40;;;22.50;61.40;;;;;;4918555;28;89604;-89
2023/10/20 06:14:46;;;;;;;3.35;1.20;;;22.50;61.30;;;;;;4917947;28;89257;-86
2023/10/20 06:17:11;;;;;;;4.20;1.10;;;22.50;61.70;;;;;;4936512;28;87477;-88
2023/10/20 06:19:37;;;;;;;1.83;1.38;;;22.50;61.60;;;;;;4919141;28;89763;-90
2023/10/20 06:22:04;;;;;;;2.17;1.50;;;22.60;61.70;;;;;;4920584;28;91655;-89
2023/10/20 06:24:30;;;;;;;2.05;1.60;;;22.60;61.60;;;;;;4934979;28;91610;-91
2023/10/20 06:27:02;;;;;;;7.70;1.50;;;22.60;61.80;;;;;;4921131;28;87363;-88
2023/10/20 06:29:38;;;;;;;2.20;1.65;;;22.60;62.00;;;;;;4935799;28;87398;-88
2023/10/20 06:32:25;;;;;;;1.75;1.27;;;22.60;61.80;;;;;;4916581;28;90252;-89
2023/10/20 06:35:00;;;;;;;2.28;1.60;;;22.60;62.20;;;;;;4937908;28;91266;-89
2023/10/20 06:37:36;;;;;;;3.13;2.05;;;22.60;62.60;;;;;;4927952;28;87813;-89
2023/10/20 06:40:05;;;;;;;3.22;1.50;;;22.60;62.40;;;;;;4936490;28;86647;-88
2023/10/20 06:42:31;;;;;;;3.25;1.60;;;22.60;62.80;;;;;;4916050;28;90680;-87
2023/10/20 06:44:57;;;;;;;2.55;1.55;;;22.60;63.10;;;;;;4936846;28;87990;-89
2023/10/20 06:47:22;;;;;;;1.88;1.55;;;22.60;63.00;;;;;;4912894;28;88521;-88
2023/10/20 06:49:48;;;;;;;3.05;1.98;;;22.60;62.70;;;;;;4925832;28;88546;-86
2023/10/20 06:52:20;;;;;;;2.90;2.00;;;22.60;62.70;;;;;;4905595;28;90594;-87
2023/10/20 06:54:46;;;;;;;3.53;2.05;;;22.60;63.00;;;;;;4928223;28;87843;-89
2023/10/20 06:57:13;;;;;;;2.10;1.90;;;22.60;63.10;;;;;;4935909;28;87690;-88
2023/10/20 06:59:39;;;;;;;3.53;2.00;;;22.60;63.30;;;;;;4919013;28;87673;-87
2023/10/20 07:02:18;;;;;;;2.50;1.90;;;22.60;63.50;;;;;;4936307;28;88100;-86
2023/10/20 07:04:44;;;;;;;2.80;2.20;;;22.60;63.50;;;;;;4914523;28;88716;-92
2023/10/20 07:07:13;;;;;;;2.58;1.77;;;22.60;63.90;;;;;;4917313;28;87517;-88
2023/10/20 07:09:40;;;;;;;;;;;22.60;63.80;;;;;;4936324;28;87428;-88
2023/10/20 07:12:06;;;;;;;2.35;2.00;;;22.60;63.80;;;;;;4940262;28;88534;-89
2023/10/20 07:14:34;;;;;;;2.45;2.10;;;22.60;64.10;;;;;;4932707;28;88747;-88
2023/10/20 07:17:03;;;;;;;3.35;1.95;;;22.60;64.00;;;;;;4936007;28;87602;-86
2023/10/20 07:19:31;;;;;;;3.53;2.10;;;22.60;64.00;;;;;;4931071;28;87086;-89
2023/10/20 07:21:57;;;;;;;2.53;2.00;;;22.60;63.90;;;;;;4937001;28;88258;-90
2023/10/20 07:24:23;;;;;;;2.58;2.15;;;22.60;63.60;;;;;;4919567;28;89702;-88
2023/10/20 07:26:49;;;;;;;3.25;1.50;;;22.60;63.70;;;;;;4924090;28;87747;-91
2023/10/20 07:29:15;;;;;;;1.92;1.67;;;22.60;64.10;;;;;;4943440;28;86889;-89
2023/10/20 07:31:42;;;;;;;6.18;1.90;;;22.60;64.00;;;;;;4920251;28;90597;-87
2023/10/20 07:34:09;;;;;;;2.50;2.22;;;22.60;64.20;;;;;;4915409;28;89252;-90
2023/10/20 07:36:42;;;;;;;2.55;1.70;;;22.60;64.30;;;;;;4905270;28;88955;-88
2023/10/20 07:39:16;;;;;;;2.67;1.73;;;22.60;64.20;;;;;;4942238;28;87463;-90
2023/10/20 07:41:42;;;;;;;2.90;1.38;;;22.60;64.30;;;;;;4922285;28;90947;-90
2023/10/20 07:44:09;;;;;;;3.92;1.52;;;22.60;64.20;;;;;;4927597;28;88104;-88
2023/10/20 07:46:35;;;;;;;2.63;1.80;;;22.60;64.40;;;;;;4923444;28;87357;-87
2023/10/20 07:49:01;;;;;;;2.95;1.60;;;22.60;64.40;;;;;;4930981;28;87531;-89
2023/10/20 07:51:28;;;;;;;3.65;1.55;;;22.70;64.20;;;;;;4938643;28;87666;-89
2023/10/20 07:53:54;;;;;;;2.50;1.65;;;22.70;64.20;;;;;;4920856;28;94883;-92
2023/10/20 07:56:19;;;;;;;4.00;1.90;;;22.70;64.50;;;;;;4910351;28;87379;-87
2023/10/20 07:58:45;;;;;;;2.10;1.42;;;22.70;64.30;;;;;;4936905;28;87335;-87
2023/10/20 08:01:11;;;;;;;5.47;2.13;;;22.60;64.10;;;;;;4934457;28;89164;-87
2023/10/20 08:03:36;;;;;;;26.40;6.28;;;22.70;64.20;;;;;;4932660;28;88329;-88
2023/10/20 08:06:05;;;;;;;40.00;9.45;;;22.70;63.50;;;;;;4933869;28;88001;-88
2023/10/20 08:08:40;;;;;;;31.52;7.07;;;22.70;62.90;;;;;;4934087;28;87653;-88
2023/10/20 08:11:06;;;;;;;14.98;5.13;;;22.70;63.50;;;;;;4941859;28;88819;-89
2023/10/20 08:13:36;;;;;;;22.52;6.30;;;22.70;63.80;;;;;;4922663;28;90068;-88
2023/10/20 08:16:03;;;;;;;23.17;5.63;;;22.70;63.90;;;;;;4939285;28;87310;-88
2023/10/20 08:18:33;;;;;;;27.55;6.55;;;22.70;63.80;;;;;;4939600;28;86574;-87
2023/10/20 08:21:07;;;;;;;28.02;6.70;;;22.70;64.10;;;;;;4937408;28;88220;-89
2023/10/20 08:23:37;;;;;;;26.25;6.78;;;22.70;64.20;;;;;;4937598;28;88419;-90
2023/10/20 08:26:03;;;;;;;19.02;5.18;;;22.70;64.40;;;;;;4935915;28;88702;-92
2023/10/20 08:28:29;;;;;;;21.35;5.22;;;22.70;64.30;;;;;;4935020;28;88287;-88
2023/10/20 08:31:07;;;;;;;20.50;6.30;;;22.70;64.20;;;;;;4935250;28;90686;-89
2023/10/20 08:33:41;;;;;;;18.92;5.75;;;22.70;64.30;;;;;;4920377;28;90925;-89
2023/10/20 08:36:14;;;;;;;16.67;5.80;;;22.70;64.40;;;;;;4936479;28;87619;-88
2023/10/20 08:38:42;;;;;;;20.45;6.68;;;22.70;64.90;;;;;;4918885;28;88029;-90
2023/10/20 08:41:09;;;;;;;20.65;5.32;;;22.70;65.20;;;;;;4925807;28;90432;-88
2023/10/20 08:43:37;;;;;;;16.80;6.07;;;22.70;65.00;;;;;;4922649;28;90286;-88
2023/10/20 08:46:04;;;;;;;14.43;5.20;;;22.80;65.30;;;;;;4908995;28;87632;-89
2023/10/20 08:48:31;;;;;;;13.68;5.15;;;22.70;65.10;;;;;;4933654;28;87389;-89
2023/10/20 08:50:59;;;;;;;13.70;5.30;;;22.70;66.10;;;;;;4934634;28;91388;-88
2023/10/20 08:53:28;;;;;;;10.82;5.05;;;22.70;65.50;;;;;;4914271;28;91453;-88
2023/10/20 08:55:53;;;;;;;18.65;6.07;;;22.70;66.10;;;;;;4919881;28;87436;-88
2023/10/20 08:58:20;;;;;;;15.85;6.03;;;22.80;65.00;;;;;;4938133;28;87795;-86
2023/10/20 09:00:46;;;;;;;21.42;5.75;;;22.80;65.30;;;;;;4937231;28;87415;-87
2023/10/20 09:03:20;;;;;;;14.50;5.38;;;22.80;65.60;;;;;;4919760;28;90564;-87
2023/10/20 09:05:45;;;;;;;12.82;4.82;;;22.80;65.50;;;;;;4901499;28;87785;-88
2023/10/20 09:08:12;;;;;;;13.20;4.63;;;22.80;65.60;;;;;;4913954;28;90047;-89
2023/10/20 09:10:42;;;;;;;9.98;4.72;;;22.80;64.50;;;;;;4942024;28;88990;-87
2023/10/20 09:13:08;;;;;;;13.00;5.20;;;22.80;64.80;;;;;;4921970;28;90067;-91
2023/10/20 09:15:34;;;;;;;11.00;4.65;;;22.90;65.40;;;;;;4921182;28;88341;-88
2023/10/20 09:18:00;;;;;;;11.70;4.80;;;22.90;65.20;;;;;;4927368;28;89860;-88
2023/10/20 09:20:26;;;;;;;10.65;4.30;;;22.90;65.20;;;;;;4916568;28;90483;-89
2023/10/20 09:22:52;;;;;;;9.82;4.47;;;22.90;65.70;;;;;;4917586;28;89936;-90
2023/10/20 09:25:18;;;;;;;14.30;4.75;;;23.00;65.50;;;;;;4921064;28;87419;-89
2023/10/20 09:27:46;;;;;;;7.80;4.20;;;22.90;65.40;;;;;;4922015;28;89442;-90
2023/10/20 09:30:14;;;;;;;12.65;5.32;;;23.00;66.00;;;;;;4938244;28;88631;-89
2023/10/20 09:32:39;;;;;;;11.27;3.75;;;23.00;65.80;;;;;;4930353;28;90385;-90
2023/10/20 09:35:06;;;;;;;7.85;3.85;;;23.00;64.70;;;;;;4936466;28;87019;-88
2023/10/20 09:37:35;;;;;;;6.97;3.92;;;23.00;66.20;;;;;;4937215;28;87648;-88
2023/10/20 09:40:05;;;;;;;;;;;23.00;66.10;;;;;;4918006;28;91901;-86
2023/10/20 09:42:36;;;;;;;;;;;23.00;65.70;;;;;;4924464;28;90681;-87
2023/10/20 09:45:09;;;;;;;11.88;3.95;;;23.00;65.60;;;;;;4929893;28;88011;-87
2023/10/20 09:47:38;;;;;;;5.90;3.38;;;23.00;65.80;;;;;;4935880;28;87439;-85
2023/10/20 09:50:05;;;;;;;9.55;3.22;;;23.00;66.00;;;;;;4924948;28;87732;-85
2023/10/20 09:52:32;;;;;;;11.35;3.85;;;23.00;65.70;;;;;;4925829;28;90533;-89
2023/10/20 09:54:58;;;;;;;8.70;3.38;;;23.00;65.30;;;;;;4928041;28;87365;-86
2023/10/20 09:57:26;;;;;;;6.72;3.42;;;23.00;66.20;;;;;;4947419;28;86262;-86
2023/10/20 09:59:54;;;;;;;12.02;3.95;;;23.00;66.10;;;;;;4946440;28;88072;-87
2023/10/20 10:02:27;;;;;;;7.30;3.90;;;23.00;66.00;;;;;;4916714;28;90284;-91
2023/10/20 10:04:54;;;;;;;12.02;3.80;;;23.00;66.00;;;;;;4938831;28;87913;-87
2023/10/20 10:07:28;;;;;;;13.23;3.50;;;23.00;66.30;;;;;;4946806;28;86894;-88
2023/10/20 10:09:55;;;;;;;8.50;3.83;;;23.00;66.30;;;;;;4931041;28;91121;-87
2023/10/20 10:12:23;;;;;;;8.82;3.65;;;23.00;66.20;;;;;;4934837;28;89199;-93
2023/10/20 10:14:57;;;;;;;6.53;3.13;;;23.00;66.80;;;;;;4948893;28;87570;-92
2023/10/20 10:17:23;;;;;;;9.50;3.63;;;23.00;66.80;;;;;;4930614;28;88711;-88
2023/10/20 10:19:50;;;;;;;5.70;3.30;;;23.00;66.60;;;;;;4947256;28;87649;-88
2023/10/20 10:22:16;;;;;;;10.43;3.92;;;23.10;66.20;;;;;;4937578;28;87892;-87
2023/10/20 10:24:54;;;;;;;10.55;3.60;;;23.10;66.40;;;;;;4926626;28;87271;-87
2023/10/20 10:27:22;;;;;;;8.02;3.15;;;23.00;66.50;;;;;;4922704;28;87207;-88
2023/10/20 10:30:05;;;;;;;5.82;2.97;;;23.00;66.40;;;;;;4918074;28;91395;-87
2023/10/20 10:32:32;;;;;;;6.57;3.50;;;23.00;65.90;;;;;;4932116;28;88229;-86
2023/10/20 10:34:58;;;;;;;6.22;2.95;;;23.00;66.10;;;;;;4925701;28;94088;-86
2023/10/20 10:37:35;;;;;;;6.10;3.33;;;23.10;65.70;;;;;;4928157;28;87155;-85
2023/10/20 10:40:18;;;;;;;7.35;3.28;;;23.10;66.30;;;;;;4919027;28;87697;-85
2023/10/20 10:42:49;;;;;;;9.05;3.22;;;23.10;66.00;;;;;;4927060;28;89903;-88
2023/10/20 10:45:42;;;;;;;6.10;3.30;;;23.10;65.90;;;;;;4922515;28;87677;-85
2023/10/20 10:48:10;;;;;;;5.63;2.55;;;23.10;66.20;;;;;;4925205;28;95686;-87
2023/10/20 10:50:40;;;;;;;8.13;3.15;;;23.10;66.00;;;;;;4939036;28;90994;-85
2023/10/20 10:53:06;;;;;;;5.65;2.42;;;23.10;66.20;;;;;;4939216;28;87783;-88
2023/10/20 10:55:35;;;;;;;7.20;3.22;;;23.20;66.50;;;;;;4928458;28;88477;-88
2023/10/20 10:58:02;;;;;;;3.97;2.65;;;23.10;66.40;;;;;;4924113;28;87289;-86
2023/10/20 11:00:29;;;;;;;5.90;3.10;;;23.10;66.30;;;;;;4933933;28;89988;-90
2023/10/20 11:02:57;;;;;;;4.47;2.63;;;23.10;66.00;;;;;;4937517;28;87787;-88
2023/10/20 11:05:23;;;;;;;4.72;2.40;;;23.10;66.30;;;;;;4936645;28;87273;-87
2023/10/20 11:07:56;;;;;;;9.15;2.63;;;23.20;66.40;;;;;;4939288;28;87211;-85
2023/10/20 11:10:35;;;;;;;8.43;3.00;;;23.10;65.40;;;;;;4935442;28;90973;-85
2023/10/20 11:13:06;;;;;;;6.03;2.70;;;23.10;65.00;;;;;;4938982;28;87409;-88
2023/10/20 11:15:32;;;;;;;17.50;4.25;;;23.20;65.60;;;;;;4938444;28;87059;-87
2023/10/20 11:18:01;;;;;;;15.68;4.13;;;23.20;65.00;;;;;;4937408;28;87789;-86
2023/10/20 11:20:27;;;;;;;19.48;3.90;;;23.20;64.90;;;;;;4933857;28;88722;-87
2023/10/20 11:22:57;;;;;;;11.50;3.60;;;23.20;65.10;;;;;;4935746;28;88349;-86
2023/10/20 11:25:24;;;;;;;11.13;3.95;;;23.20;65.00;;;;;;4934949;28;87342;-88
2023/10/20 11:27:54;;;;;;;22.90;5.00;;;23.20;65.10;;;;;;4934633;28;88306;-85
2023/10/20 11:30:40;;;;;;;12.65;4.32;;;23.20;65.00;;;;;;4937603;28;88494;-88
2023/10/20 11:33:06;;;;;;;12.05;4.22;;;23.20;65.30;;;;;;4917823;28;94914;-87
2023/10/20 11:35:32;;;;;;;14.10;4.00;;;23.20;65.30;;;;;;4932985;28;87543;-86
2023/10/20 11:37:58;;;;;;;12.02;4.10;;;23.20;65.30;;;;;;4934636;28;86759;-87
2023/10/20 11:40:26;;;;;;;9.98;3.88;;;23.20;65.30;;;;;;4933737;28;87591;-86
2023/10/20 11:42:52;;;;;;;12.57;3.72;;;23.20;65.00;;;;;;4926450;28;87479;-86
2023/10/20 11:45:18;;;;;;;15.15;4.20;;;23.20;65.50;;;;;;4921381;28;88328;-87
2023/10/20 11:47:43;;;;;;;14.40;4.07;;;23.20;65.50;;;;;;4939859;28;87150;-86
2023/10/20 11:50:18;;;;;;;12.38;4.00;;;23.20;65.50;;;;;;4902490;28;87097;-86
2023/10/20 11:52:45;;;;;;;15.35;3.70;;;23.10;65.10;;;;;;4912026;28;87422;-85
2023/10/20 11:55:11;;;;;;;8.20;3.55;;;23.20;65.20;;;;;;4934164;28;87380;-87
2023/10/20 11:57:38;;;;;;;13.48;3.85;;;23.10;65.30;;;;;;4936932;28;87459;-86
2023/10/20 12:00:09;;;;;;;9.70;3.35;;;23.20;65.20;;;;;;4936965;28;87596;-86
2023/10/20 12:02:35;;;;;;;11.60;3.92;;;23.10;65.30;;;;;;4936560;28;88521;-85
2023/10/20 12:05:13;;;;;;;8.80;3.30;;;23.20;65.70;;;;;;4933970;28;87794;-85
2023/10/20 12:07:38;;;;;;;8.20;3.20;;;23.10;64.70;;;;;;4932983;28;86981;-85
2023/10/20 12:10:05;;;;;;;9.80;3.78;;;23.20;64.80;;;;;;4935426;28;89274;-85
2023/10/20 12:12:31;;;;;;;9.52;3.85;;;23.20;64.70;;;;;;4932948;28;88216;-85
2023/10/20 12:14:57;;;;;;;8.00;3.50;;;23.20;65.00;;;;;;4936789;28;87764;-85
2023/10/20 12:17:24;;;;;;;9.48;3.58;;;23.20;65.10;;;;;;4939684;28;87042;-88
2023/10/20 12:19:50;;;;;;;10.20;3.58;;;23.20;64.70;;;;;;4936833;28;88057;-85
2023/10/20 12:22:17;;;;;;;8.60;3.15;;;23.10;64.70;;;;;;4939842;28;88535;-86
2023/10/20 12:24:43;;;;;;;9.60;3.42;;;23.10;64.80;;;;;;4937552;28;87364;-86
2023/10/20 12:27:12;;;;;;;11.85;4.32;;;23.10;64.80;;;;;;4939529;28;86574;-84
2023/10/20 12:29:40;;;;;;;8.55;3.25;;;23.10;65.00;;;;;;4938437;28;88050;-86
2023/10/20 12:32:07;;;;;;;8.63;3.35;;;23.10;64.90;;;;;;4940334;28;87922;-84
2023/10/20 12:34:33;;;;;;;7.28;2.95;;;23.10;64.90;;;;;;4927003;28;88227;-86
2023/10/20 12:36:59;;;;;;;8.25;2.95;;;23.10;65.20;;;;;;4919737;28;87341;-85
2023/10/20 12:39:27;;;;;;;8.30;3.05;;;23.10;65.00;;;;;;4919400;28;88675;-86
2023/10/20 12:41:54;;;;;;;10.55;3.63;;;23.10;64.70;;;;;;4911804;28;92502;-84
2023/10/20 12:44:20;;;;;;;9.05;3.25;;;23.10;64.50;;;;;;4940176;28;87591;-87
2023/10/20 12:46:46;;;;;;;7.78;3.00;;;23.10;65.00;;;;;;4940339;28;87885;-85
2023/10/20 12:49:12;;;;;;;7.25;3.03;;;23.20;64.40;;;;;;4938816;28;88260;-84
2023/10/20 12:51:40;;;;;;;7.30;3.20;;;23.20;64.50;;;;;;4939544;28;87706;-85
2023/10/20 12:54:05;;;;;;;10.25;3.15;;;23.20;64.40;;;;;;4940052;28;87970;-85
2023/10/20 12:56:31;;;;;;;7.00;2.75;;;23.20;64.60;;;;;;4918179;28;87383;-85
2023/10/20 12:58:57;;;;;;;6.13;2.63;;;23.20;64.40;;;;;;4937842;28;88358;-85
2023/10/20 13:01:23;;;;;;;10.50;2.75;;;23.10;64.30;;;;;;4934677;28;87865;-88
2023/10/20 13:03:49;;;;;;;9.82;3.83;;;23.10;64.30;;;;;;4938573;28;87646;-86
2023/10/20 13:06:15;;;;;;;7.68;2.67;;;23.10;64.50;;;;;;4939838;28;87598;-85
2023/10/20 13:08:43;;;;;;;7.85;3.00;;;23.10;64.60;;;;;;4937299;28;87834;-85
2023/10/20 13:11:10;;;;;;;9.45;3.05;;;23.10;64.40;;;;;;4938413;28;87488;-88
2023/10/20 13:13:36;;;;;;;6.95;3.22;;;23.10;64.60;;;;;;4919224;28;87473;-86
2023/10/20 13:16:06;;;;;;;7.00;3.13;;;23.10;64.30;;;;;;4935596;28;87356;-89
2023/10/20 13:18:32;;;;;;;11.65;3.08;;;23.20;64.30;;;;;;4938313;28;87989;-87
2023/10/20 13:21:11;;;;;;;6.55;2.67;;;23.10;64.00;;;;;;4935679;28;88475;-86
2023/10/20 13:23:37;;;;;;;6.43;3.00;;;23.20;64.20;;;;;;4937976;28;88853;-85
2023/10/20 13:26:04;;;;;;;6.25;2.25;;;23.10;64.40;;;;;;4936994;28;87590;-85
2023/10/20 13:28:31;;;;;;;7.25;2.63;;;23.10;64.50;;;;;;4937631;28;88136;-86
2023/10/20 13:31:06;;;;;;;4.85;2.38;;;23.10;64.50;;;;;;4937960;28;87597;-86